Time;durP1;ratioP1;P1;durP2;ratioP2;P2;SDS_P1;SDS_P2;PMS_P1;PMS_P2;Temp;Humidity;BMP_temperature;BMP_pressure;BME280_temperature;BME280_humidity;BME280_pressure;Samples;Min_cycle;Max_cycle;Signal;HPM_P1;HPM_P2
2022/03/15 05:01:45;;;;;;;40.90;18.55;;;5.20;99.90;;;;;;5329306;23;20248;-69
2022/03/15 05:04:12;;;;;;;48.20;18.13;;;5.20;99.90;;;;;;4947557;28;20214;-69
2022/03/15 05:06:39;;;;;;;60.80;17.70;;;5.20;99.90;;;;;;4951995;28;20198;-69
2022/03/15 05:09:06;;;;;;;70.32;16.23;;;5.20;99.90;;;;;;4952634;29;20292;-69
2022/03/15 05:11:34;;;;;;;62.90;18.50;;;5.10;99.90;;;;;;4940271;28;20273;-69
2022/03/15 05:14:01;;;;;;;34.60;14.85;;;5.00;99.90;;;;;;4924136;29;20560;-69
2022/03/15 05:16:28;;;;;;;45.72;17.05;;;5.00;99.90;;;;;;4914832;29;20210;-70
2022/03/15 05:18:57;;;;;;;36.80;15.38;;;5.00;99.90;;;;;;4922103;29;20316;-69
2022/03/15 05:21:25;;;;;;;35.95;14.40;;;5.00;99.90;;;;;;4932133;29;20233;-70
2022/03/15 05:23:52;;;;;;;37.35;14.70;;;5.00;99.90;;;;;;4932672;29;20205;-69
2022/03/15 05:26:19;;;;;;;38.17;15.40;;;4.90;99.90;;;;;;4932250;29;20671;-69
2022/03/15 05:28:49;;;;;;;54.88;15.57;;;4.90;99.90;;;;;;4932263;29;20257;-69
2022/03/15 05:31:16;;;;;;;38.55;16.30;;;4.90;99.90;;;;;;4932959;29;20222;-68
2022/03/15 05:33:43;;;;;;;40.97;16.50;;;4.90;99.90;;;;;;4930066;29;20687;-68
2022/03/15 05:36:11;;;;;;;36.40;15.30;;;4.90;99.90;;;;;;4929990;23;20273;-71
2022/03/15 05:38:38;;;;;;;38.97;16.40;;;4.90;99.90;;;;;;4909963;29;20227;-71
2022/03/15 05:41:08;;;;;;;45.78;15.77;;;4.90;99.90;;;;;;4914971;29;20569;-68
2022/03/15 05:43:35;;;;;;;38.22;14.95;;;4.90;99.90;;;;;;4917839;29;20206;-68
2022/03/15 05:46:02;;;;;;;40.88;15.90;;;4.80;99.90;;;;;;4913613;29;20230;-71
2022/03/15 05:48:29;;;;;;;53.60;14.10;;;4.80;99.90;;;;;;4913369;29;20243;-69
2022/03/15 05:50:56;;;;;;;33.83;14.73;;;4.80;99.90;;;;;;4912395;29;20273;-71
2022/03/15 05:53:24;;;;;;;31.92;14.02;;;4.70;99.90;;;;;;4904129;29;20210;-72
2022/03/15 05:55:51;;;;;;;28.70;12.85;;;4.70;99.90;;;;;;4929993;29;20393;-70
2022/03/15 05:58:17;;;;;;;38.58;13.82;;;4.60;99.90;;;;;;4922301;29;20241;-71
2022/03/15 06:00:44;;;;;;;47.17;14.98;;;4.60;99.90;;;;;;4933878;29;20212;-71
2022/03/15 06:03:11;;;;;;;26.35;12.88;;;4.60;99.90;;;;;;4927122;29;20228;-71
2022/03/15 06:05:38;;;;;;;49.70;15.20;;;4.50;99.90;;;;;;4928641;29;20222;-69
2022/03/15 06:08:06;;;;;;;54.25;15.30;;;4.60;99.90;;;;;;4937466;29;20217;-71
2022/03/15 06:10:34;;;;;;;39.08;13.43;;;4.40;99.90;;;;;;4929628;29;20294;-71
2022/03/15 06:13:00;;;;;;;32.85;13.60;;;4.30;99.90;;;;;;4935527;29;20217;-70
2022/03/15 06:15:27;;;;;;;36.03;12.30;;;4.30;99.90;;;;;;4924759;29;20275;-70
2022/03/15 06:17:57;;;;;;;33.90;12.10;;;4.40;99.90;;;;;;4939029;29;20217;-71
2022/03/15 06:20:25;;;;;;;39.08;13.75;;;4.20;99.90;;;;;;4917906;29;20596;-71
2022/03/15 06:22:52;;;;;;;61.88;16.42;;;4.20;99.90;;;;;;4931118;29;20206;-70
2022/03/15 06:25:19;;;;;;;40.65;12.30;;;4.20;99.90;;;;;;4916469;29;20227;-71
2022/03/15 06:27:48;;;;;;;23.67;11.55;;;4.20;99.90;;;;;;4916217;29;20208;-70
2022/03/15 06:30:16;;;;;;;41.83;14.00;;;4.10;99.90;;;;;;4921120;29;20286;-71
2022/03/15 06:32:43;;;;;;;27.60;9.55;;;4.00;99.90;;;;;;4910543;29;20281;-70
2022/03/15 06:35:12;;;;;;;41.70;12.27;;;4.00;99.90;;;;;;4921109;29;20230;-71
2022/03/15 06:37:40;;;;;;;42.50;12.60;;;4.00;99.90;;;;;;4919294;29;20206;-71
2022/03/15 06:40:08;;;;;;;34.05;12.80;;;4.00;99.90;;;;;;4916949;29;20317;-70
2022/03/15 06:42:35;;;;;;;41.08;13.57;;;4.00;99.90;;;;;;4923503;29;20293;-72
2022/03/15 06:45:04;;;;;;;21.38;11.45;;;4.10;99.90;;;;;;4918599;29;20227;-69
2022/03/15 06:47:31;;;;;;;27.35;12.18;;;4.10;99.90;;;;;;4926739;29;20217;-70
2022/03/15 06:49:57;;;;;;;426.98;106.07;;;4.10;99.90;;;;;;4920333;29;20286;-71
2022/03/15 06:52:24;;;;;;;54.90;17.60;;;4.10;99.90;;;;;;4924231;29;20234;-71
2022/03/15 06:54:51;;;;;;;28.02;11.90;;;4.10;99.90;;;;;;4921201;29;20277;-71
2022/03/15 06:57:17;;;;;;;23.77;10.63;;;4.00;99.90;;;;;;4925015;29;20214;-72
2022/03/15 06:59:44;;;;;;;31.40;10.40;;;4.00;99.90;;;;;;4935124;29;20222;-72
2022/03/15 07:02:13;;;;;;;24.65;15.23;;;4.00;99.90;;;;;;4929047;29;20300;-70
2022/03/15 07:04:40;;;;;;;21.55;12.18;;;4.10;99.90;;;;;;4919017;29;20289;-72
2022/03/15 07:07:07;;;;;;;17.98;11.60;;;4.10;99.90;;;;;;4929370;29;20205;-71
2022/03/15 07:09:34;;;;;;;16.75;10.80;;;4.10;99.90;;;;;;4930570;29;20213;-72
2022/03/15 07:12:01;;;;;;;19.10;10.25;;;4.10;99.90;;;;;;4929617;29;20523;-71
2022/03/15 07:14:28;;;;;;;19.55;11.02;;;4.00;99.90;;;;;;4924012;29;20231;-72
2022/03/15 07:16:54;;;;;;;12.07;10.63;;;4.00;99.90;;;;;;4924293;29;20396;-72
2022/03/15 07:19:22;;;;;;;15.10;10.38;;;4.10;99.90;;;;;;4941534;28;20229;-72
2022/03/15 07:21:49;;;;;;;21.77;10.85;;;4.10;99.90;;;;;;4960068;28;20264;-68
2022/03/15 07:24:16;;;;;;;18.58;11.57;;;4.10;99.90;;;;;;4960150;29;20201;-71
2022/03/15 07:26:43;;;;;;;13.85;11.25;;;4.10;99.90;;;;;;4960117;28;20257;-71
2022/03/15 07:29:09;;;;;;;19.45;11.77;;;4.10;99.90;;;;;;4946879;29;20280;-70
2022/03/15 07:31:36;;;;;;;17.40;10.35;;;4.20;99.90;;;;;;4923198;29;20214;-72
2022/03/15 07:34:03;;;;;;;15.50;12.35;;;4.20;99.90;;;;;;4915797;29;20236;-69
2022/03/15 07:36:32;;;;;;;16.20;11.98;;;4.30;99.90;;;;;;4917934;29;20314;-70
2022/03/15 07:38:59;;;;;;;13.82;10.43;;;4.30;99.90;;;;;;4923681;29;20286;-71
2022/03/15 07:41:26;;;;;;;13.27;10.60;;;4.20;99.90;;;;;;4918566;29;20226;-70
2022/03/15 07:43:53;;;;;;;17.30;13.23;;;4.30;99.90;;;;;;4919332;29;20217;-70
2022/03/15 07:46:19;;;;;;;17.88;12.40;;;4.40;99.90;;;;;;4920541;29;20235;-71
2022/03/15 07:48:46;;;;;;;17.60;13.35;;;4.70;99.90;;;;;;4931754;29;20198;-69
2022/03/15 07:51:13;;;;;;;21.40;16.95;;;4.80;99.90;;;;;;4915303;29;20206;-70
2022/03/15 07:53:41;;;;;;;19.80;14.10;;;4.90;99.90;;;;;;4922029;29;20684;-69
2022/03/15 07:56:08;;;;;;;16.52;13.30;;;5.00;99.90;;;;;;4919489;29;20231;-72
2022/03/15 07:58:34;;;;;;;22.80;15.25;;;5.10;99.90;;;;;;4932269;29;20277;-70
2022/03/15 08:01:01;;;;;;;17.60;13.85;;;5.20;99.90;;;;;;4940169;29;20213;-71
2022/03/15 08:03:28;;;;;;;19.77;12.95;;;5.40;99.90;;;;;;4917649;29;20210;-70
2022/03/15 08:05:55;;;;;;;22.13;12.57;;;5.30;99.90;;;;;;4916893;29;20252;-69
2022/03/15 08:08:21;;;;;;;21.23;12.80;;;5.20;99.90;;;;;;4918986;29;20313;-70
2022/03/15 08:10:49;;;;;;;16.17;12.43;;;5.30;99.90;;;;;;4917419;29;20214;-71
2022/03/15 08:13:16;;;;;;;17.85;12.68;;;5.30;99.90;;;;;;4926422;29;20214;-71
2022/03/15 08:15:43;;;;;;;19.05;13.60;;;5.40;99.90;;;;;;4914163;29;20237;-71
2022/03/15 08:18:10;;;;;;;15.75;12.45;;;5.60;99.90;;;;;;4915971;29;20221;-70
2022/03/15 08:20:39;;;;;;;15.65;11.63;;;5.80;99.90;;;;;;4909249;29;20235;-69
2022/03/15 08:23:06;;;;;;;17.20;13.05;;;5.80;99.90;;;;;;4901470;29;20242;-71
2022/03/15 08:25:33;;;;;;;16.25;13.77;;;5.90;99.90;;;;;;4916013;29;20233;-71
2022/03/15 08:28:01;;;;;;;21.13;13.70;;;6.10;99.90;;;;;;4925928;29;20210;-71
2022/03/15 08:30:28;;;;;;;14.63;12.43;;;6.20;99.90;;;;;;4918475;29;20231;-71
2022/03/15 08:32:55;;;;;;;19.30;12.20;;;6.30;99.90;;;;;;4911079;29;20266;-69
2022/03/15 08:35:22;;;;;;;16.35;13.05;;;6.30;99.90;;;;;;4923310;29;20243;-70
2022/03/15 08:37:50;;;;;;;15.13;12.55;;;6.40;99.90;;;;;;4923507;29;20207;-69
2022/03/15 08:40:17;;;;;;;20.92;13.00;;;6.50;99.90;;;;;;4923647;29;20282;-71
2022/03/15 08:42:44;;;;;;;14.57;12.38;;;6.60;99.90;;;;;;4925404;29;20211;-70
2022/03/15 08:45:12;;;;;;;17.10;13.32;;;6.80;99.90;;;;;;4920935;29;20230;-71
2022/03/15 08:47:39;;;;;;;17.05;14.93;;;6.90;99.90;;;;;;4923569;29;20213;-71
2022/03/15 08:50:08;;;;;;;16.85;14.95;;;7.10;99.90;;;;;;4917193;29;20207;-71
2022/03/15 08:52:36;;;;;;;25.25;19.75;;;7.20;99.90;;;;;;4917479;29;20214;-70
2022/03/15 08:55:03;;;;;;;15.30;13.70;;;7.40;99.90;;;;;;4914639;29;20702;-71
2022/03/15 08:57:30;;;;;;;23.17;13.85;;;7.50;99.90;;;;;;4924653;29;20547;-72
2022/03/15 08:59:58;;;;;;;16.88;13.90;;;7.60;99.90;;;;;;4906948;29;20593;-70
2022/03/15 09:02:26;;;;;;;16.23;14.23;;;7.60;99.90;;;;;;4923314;29;20619;-71
2022/03/15 09:04:52;;;;;;;14.98;13.38;;;7.70;99.90;;;;;;4914941;29;20727;-71
2022/03/15 09:07:19;;;;;;;19.33;15.00;;;7.80;99.90;;;;;;4925432;29;20207;-71
2022/03/15 09:09:46;;;;;;;15.90;14.15;;;7.80;99.90;;;;;;4907622;29;20583;-71
2022/03/15 09:12:13;;;;;;;15.93;14.32;;;7.90;99.90;;;;;;4923122;29;20211;-71
2022/03/15 09:14:40;;;;;;;16.42;13.27;;;7.90;99.90;;;;;;4899699;29;20227;-69
2022/03/15 09:17:06;;;;;;;19.55;13.40;;;7.80;99.90;;;;;;4928198;29;20232;-70
2022/03/15 09:19:35;;;;;;;20.15;15.23;;;7.90;99.90;;;;;;4921870;29;20253;-70
2022/03/15 09:22:04;;;;;;;16.50;13.63;;;8.10;99.90;;;;;;4911540;29;20214;-70
2022/03/15 09:24:33;;;;;;;17.30;14.60;;;8.20;99.90;;;;;;4927859;29;20230;-70
2022/03/15 09:27:00;;;;;;;23.63;13.80;;;8.30;99.90;;;;;;4915610;29;20234;-70
2022/03/15 09:29:26;;;;;;;16.15;14.20;;;8.30;99.90;;;;;;4931841;29;20338;-69
2022/03/15 09:31:53;;;;;;;56.45;37.40;;;8.40;99.90;;;;;;4934004;29;20218;-70
2022/03/15 09:34:22;;;;;;;21.10;16.00;;;8.40;99.90;;;;;;4925815;29;20213;-71
2022/03/15 09:36:50;;;;;;;18.45;14.98;;;8.50;99.90;;;;;;4929929;29;20206;-70
2022/03/15 09:39:18;;;;;;;18.05;13.90;;;8.60;99.90;;;;;;4927768;29;20200;-70
2022/03/15 09:41:48;;;;;;;18.15;14.70;;;8.70;99.90;;;;;;4922348;29;20239;-69
2022/03/15 09:44:17;;;;;;;17.90;13.90;;;8.90;99.90;;;;;;4917260;29;20210;-68
2022/03/15 09:46:50;;;;;;;18.95;15.10;;;9.00;99.90;;;;;;4928018;29;20215;-69
2022/03/15 09:49:18;;;;;;;18.73;14.20;;;9.00;99.90;;;;;;4932210;29;20648;-69
2022/03/15 09:51:46;;;;;;;19.67;14.52;;;9.00;99.90;;;;;;4921447;29;20241;-70
2022/03/15 09:54:15;;;;;;;17.88;13.60;;;9.00;99.90;;;;;;4920784;29;20222;-70
2022/03/15 09:56:42;;;;;;;22.45;17.98;;;9.10;99.90;;;;;;4921709;29;20320;-72
2022/03/15 09:59:14;;;;;;;41.83;29.58;;;9.10;99.90;;;;;;4930421;29;20210;-72
2022/03/15 10:01:41;;;;;;;29.58;20.45;;;9.20;99.90;;;;;;4915272;29;20699;-70
2022/03/15 10:04:08;;;;;;;22.48;19.15;;;9.30;99.90;;;;;;4916507;29;20572;-69
2022/03/15 10:06:36;;;;;;;16.38;14.10;;;9.30;99.90;;;;;;4930659;29;20624;-72
2022/03/15 10:09:03;;;;;;;20.38;15.32;;;9.40;99.90;;;;;;4920193;29;20211;-72
2022/03/15 10:11:31;;;;;;;20.48;15.60;;;9.50;99.90;;;;;;4930001;29;20269;-72
2022/03/15 10:13:59;;;;;;;19.45;15.23;;;9.60;99.90;;;;;;4926345;29;20214;-71
2022/03/15 10:16:30;;;;;;;22.35;16.50;;;9.60;99.90;;;;;;4928417;29;20605;-70
2022/03/15 10:18:58;;;;;;;18.27;14.45;;;9.70;99.90;;;;;;4925644;29;20273;-70
2022/03/15 10:21:37;;;;;;;21.15;15.15;;;9.70;99.90;;;;;;4918504;29;20829;-70
2022/03/15 10:24:08;;;;;;;18.55;14.55;;;9.80;99.90;;;;;;4922748;29;20210;-71
2022/03/15 10:26:39;;;;;;;18.77;13.80;;;9.80;99.90;;;;;;4919490;29;20214;-71
2022/03/15 10:29:07;;;;;;;19.55;15.25;;;9.90;99.90;;;;;;4918796;29;20263;-70
2022/03/15 10:31:35;;;;;;;17.90;14.82;;;10.00;99.90;;;;;;4929566;29;20217;-69
2022/03/15 10:34:05;;;;;;;22.37;15.00;;;10.10;99.90;;;;;;4923754;29;20281;-71
2022/03/15 10:36:38;;;;;;;24.35;16.83;;;10.10;99.90;;;;;;4929153;29;20481;-70
2022/03/15 10:39:05;;;;;;;19.70;15.13;;;10.10;99.90;;;;;;4925180;29;20559;-72
2022/03/15 10:41:45;;;;;;;24.88;17.25;;;10.00;99.90;;;;;;4921452;29;20226;-70
2022/03/15 10:44:20;;;;;;;27.30;17.83;;;10.00;99.90;;;;;;4915110;29;20214;-70
2022/03/15 10:46:59;;;;;;;21.67;16.80;;;10.00;99.90;;;;;;4914164;29;20579;-70
2022/03/15 10:49:26;;;;;;;19.38;16.70;;;10.10;99.90;;;;;;4925354;29;20563;-71
2022/03/15 10:51:52;;;;;;;23.13;16.77;;;10.20;99.90;;;;;;4916595;29;20218;-70
2022/03/15 10:54:23;;;;;;;27.38;16.92;;;10.30;99.90;;;;;;4921152;29;20246;-68
2022/03/15 10:56:55;;;;;;;19.47;15.33;;;10.50;99.90;;;;;;4925387;29;20205;-70
2022/03/15 10:59:23;;;;;;;21.13;15.90;;;10.60;99.90;;;;;;4919079;29;20957;-69
2022/03/15 11:01:50;;;;;;;21.20;15.55;;;10.70;99.90;;;;;;4916310;29;20506;-69
2022/03/15 11:04:18;;;;;;;20.13;17.27;;;10.80;99.90;;;;;;4916547;29;20344;-71
2022/03/15 11:06:46;;;;;;;18.80;16.30;;;10.80;99.90;;;;;;4916196;29;20477;-71
2022/03/15 11:09:18;;;;;;;18.40;15.53;;;10.90;99.90;;;;;;4916556;29;20526;-71
2022/03/15 11:11:46;;;;;;;21.53;15.83;;;10.80;99.90;;;;;;4915880;29;20502;-69
2022/03/15 11:14:15;;;;;;;20.90;16.30;;;10.80;99.90;;;;;;4916704;29;20475;-70
2022/03/15 11:16:45;;;;;;;23.77;17.20;;;10.90;99.90;;;;;;4916357;29;20470;-70
2022/03/15 11:19:13;;;;;;;25.73;16.43;;;11.00;99.90;;;;;;4916106;29;20466;-69
2022/03/15 11:21:43;;;;;;;22.37;16.53;;;11.00;99.90;;;;;;4915687;29;20490;-70
2022/03/15 11:24:12;;;;;;;28.43;20.23;;;11.10;99.90;;;;;;4916387;29;20601;-69
2022/03/15 11:26:44;;;;;;;19.20;15.80;;;11.10;99.90;;;;;;4914877;29;20471;-69
2022/03/15 11:29:12;;;;;;;21.73;15.57;;;11.10;99.90;;;;;;4916425;29;20845;-69
2022/03/15 11:31:41;;;;;;;22.57;16.23;;;11.30;99.90;;;;;;4915941;29;20474;-70
2022/03/15 11:34:08;;;;;;;22.47;15.77;;;11.30;99.90;;;;;;4914841;29;20469;-71
2022/03/15 11:36:35;;;;;;;22.07;15.30;;;11.40;99.90;;;;;;4915212;29;20477;-69
2022/03/15 11:39:02;;;;;;;23.40;16.60;;;11.40;99.90;;;;;;4922528;29;20478;-68
2022/03/15 11:41:29;;;;;;;23.90;15.37;;;11.50;99.90;;;;;;4923129;29;20529;-71
2022/03/15 11:44:07;;;;;;;24.87;16.07;;;11.50;99.90;;;;;;4915474;29;20487;-71
2022/03/15 11:46:36;;;;;;;24.40;17.30;;;11.60;99.90;;;;;;4924665;29;20481;-72
2022/03/15 11:49:22;;;;;;;24.87;16.90;;;11.60;99.90;;;;;;4913583;29;20479;-71
2022/03/15 11:51:56;;;;;;;27.73;17.17;;;11.60;99.90;;;;;;4904865;29;20574;-71
2022/03/15 11:54:29;;;;;;;21.10;16.77;;;11.60;99.90;;;;;;4910707;29;20826;-72
2022/03/15 11:56:59;;;;;;;21.60;16.10;;;11.60;99.90;;;;;;4912332;29;20492;-71
2022/03/15 11:59:25;;;;;;;31.00;18.90;;;11.70;99.90;;;;;;4923803;29;21009;-72
2022/03/15 12:01:54;;;;;;;22.60;17.33;;;11.70;99.90;;;;;;4922709;29;20848;-71
2022/03/15 12:04:27;;;;;;;25.90;17.00;;;11.80;99.90;;;;;;4921675;29;20844;-70
2022/03/15 12:06:59;;;;;;;26.73;16.83;;;11.90;99.90;;;;;;4921572;29;20556;-69
2022/03/15 12:09:30;;;;;;;27.63;20.17;;;11.90;99.90;;;;;;4914907;29;20557;-69
2022/03/15 12:12:02;;;;;;;24.33;16.40;;;11.90;99.90;;;;;;4914825;29;20478;-70
2022/03/15 12:14:39;;;;;;;32.47;18.20;;;12.00;99.90;;;;;;4913558;29;21018;-69
2022/03/15 12:17:06;;;;;;;26.60;17.90;;;12.10;99.90;;;;;;4925854;29;20501;-70
2022/03/15 12:19:43;;;;;;;28.97;17.73;;;12.30;99.90;;;;;;4922481;29;20832;-71
2022/03/15 12:22:24;;;;;;;27.37;18.30;;;12.40;99.90;;;;;;4912351;29;20584;-71
2022/03/15 12:25:01;;;;;;;25.43;17.97;;;12.50;99.90;;;;;;4918044;29;20507;-69
2022/03/15 12:27:28;;;;;;;25.43;17.90;;;12.50;99.90;;;;;;4915128;29;20471;-68
2022/03/15 12:29:56;;;;;;;26.90;17.20;;;12.40;99.90;;;;;;4911802;29;20824;-69
2022/03/15 12:32:23;;;;;;;25.60;17.50;;;12.30;99.90;;;;;;4911680;29;20565;-70
2022/03/15 12:34:56;;;;;;;30.27;19.60;;;12.20;99.90;;;;;;4913801;29;20497;-71
2022/03/15 12:37:30;;;;;;;21.10;16.73;;;12.40;99.90;;;;;;4921121;29;20506;-71
2022/03/15 12:39:59;;;;;;;28.70;17.77;;;12.50;99.90;;;;;;4910480;29;20580;-70
2022/03/15 12:42:27;;;;;;;30.40;17.67;;;12.60;99.90;;;;;;4920959;29;20466;-71
2022/03/15 12:45:02;;;;;;;24.93;16.57;;;12.70;99.90;;;;;;4951078;23;20520;-69
2022/03/15 12:47:31;;;;;;;25.63;18.60;;;12.80;99.90;;;;;;4952447;28;20778;-69
2022/03/15 12:50:21;;;;;;;25.27;17.73;;;12.80;99.90;;;;;;4948223;28;20464;-69
2022/03/15 12:52:50;;;;;;;23.20;16.10;;;12.80;99.90;;;;;;4946989;28;21262;-69
2022/03/15 12:55:19;;;;;;;25.17;17.50;;;12.70;99.90;;;;;;4943186;29;20830;-71
2022/03/15 12:57:48;;;;;;;22.23;16.07;;;12.70;99.90;;;;;;4934764;29;20461;-69
2022/03/15 13:00:18;;;;;;;26.20;18.63;;;12.60;99.90;;;;;;4919517;29;20533;-71
2022/03/15 13:02:47;;;;;;;24.80;17.77;;;12.60;99.90;;;;;;4925031;29;20477;-69
2022/03/15 13:05:15;;;;;;;28.73;17.17;;;12.70;99.90;;;;;;4931898;29;20501;-69
2022/03/15 13:07:44;;;;;;;28.77;17.40;;;12.60;99.90;;;;;;4926250;29;20801;-69
2022/03/15 13:10:12;;;;;;;26.20;15.97;;;12.70;99.90;;;;;;4932787;29;20813;-69
2022/03/15 13:12:43;;;;;;;22.43;15.63;;;12.60;99.90;;;;;;4929865;29;20960;-70
2022/03/15 13:15:11;;;;;;;21.43;13.60;;;12.60;99.90;;;;;;4933525;29;20643;-69
2022/03/15 13:17:48;;;;;;;22.40;15.63;;;12.60;99.90;;;;;;4933730;29;20470;-69
2022/03/15 13:20:23;;;;;;;23.67;16.30;;;12.60;99.90;;;;;;4928148;29;20472;-69
2022/03/15 13:23:00;;;;;;;22.40;15.87;;;12.60;99.90;;;;;;4932109;28;20564;-69
2022/03/15 13:25:36;;;;;;;21.70;15.20;;;12.70;99.90;;;;;;4933036;29;20477;-70
2022/03/15 13:28:07;;;;;;;28.47;15.70;;;12.70;99.90;;;;;;4932621;29;20476;-69
2022/03/15 13:30:40;;;;;;;23.30;15.13;;;12.70;99.90;;;;;;4933099;29;20901;-69
2022/03/15 13:33:07;;;;;;;25.00;14.90;;;12.80;99.90;;;;;;4933517;29;20762;-69
2022/03/15 13:35:35;;;;;;;22.43;14.53;;;12.80;99.90;;;;;;4933454;29;20485;-69
2022/03/15 13:38:14;;;;;;;27.47;15.60;;;12.70;99.90;;;;;;4931015;29;20985;-69
2022/03/15 13:40:43;;;;;;;24.73;14.97;;;12.70;99.90;;;;;;4925550;29;20559;-70
2022/03/15 13:43:13;;;;;;;22.67;14.00;;;12.60;99.90;;;;;;4928855;28;21100;-69
2022/03/15 13:45:40;;;;;;;23.97;14.70;;;12.60;99.90;;;;;;4930430;29;20868;-69
2022/03/15 13:48:06;;;;;;;22.57;14.40;;;12.70;99.90;;;;;;4933842;29;20634;-69
2022/03/15 13:50:33;;;;;;;21.20;13.23;;;12.80;99.90;;;;;;4928271;29;20937;-69
2022/03/15 13:53:01;;;;;;;29.23;15.37;;;12.80;99.90;;;;;;4932925;29;20473;-69
2022/03/15 13:55:30;;;;;;;29.10;16.20;;;12.70;99.90;;;;;;4931618;29;20637;-69
2022/03/15 13:57:56;;;;;;;21.70;15.20;;;12.80;99.90;;;;;;4930399;29;20462;-69
2022/03/15 14:00:28;;;;;;;21.50;15.50;;;12.70;99.90;;;;;;4930797;29;20532;-69
2022/03/15 14:02:56;;;;;;;24.10;14.30;;;12.70;99.90;;;;;;4932361;29;20846;-70
2022/03/15 14:05:27;;;;;;;18.43;13.87;;;12.70;99.90;;;;;;4924560;29;20489;-70
2022/03/15 14:08:02;;;;;;;18.50;13.23;;;12.70;99.90;;;;;;4932308;29;20454;-70
2022/03/15 14:10:30;;;;;;;22.43;12.90;;;12.70;99.90;;;;;;4921505;29;20560;-70
2022/03/15 14:12:57;;;;;;;18.53;13.73;;;12.80;99.90;;;;;;4923008;29;20485;-69
2022/03/15 14:15:26;;;;;;;22.60;14.63;;;12.70;99.90;;;;;;4931234;29;20887;-69
2022/03/15 14:17:54;;;;;;;23.67;15.07;;;12.70;99.90;;;;;;4933872;29;20553;-69
2022/03/15 14:20:30;;;;;;;24.07;16.10;;;12.70;99.90;;;;;;4934654;29;20465;-69
2022/03/15 14:22:57;;;;;;;27.90;15.00;;;12.70;99.90;;;;;;4927147;29;20932;-69
2022/03/15 14:25:26;;;;;;;22.20;15.80;;;12.60;99.90;;;;;;4931812;29;20488;-69
2022/03/15 14:27:59;;;;;;;24.60;15.90;;;12.60;99.90;;;;;;4930645;29;20509;-70
2022/03/15 14:30:26;;;;;;;24.00;16.63;;;12.60;99.90;;;;;;4928537;29;20470;-70
2022/03/15 14:32:55;;;;;;;26.97;17.07;;;12.60;99.90;;;;;;4930932;29;20493;-70
2022/03/15 14:35:29;;;;;;;20.17;14.67;;;12.60;99.90;;;;;;4927935;29;20481;-69
2022/03/15 14:38:06;;;;;;;18.00;13.77;;;12.60;99.90;;;;;;4936199;29;20486;-69
2022/03/15 14:40:38;;;;;;;24.20;14.73;;;12.60;99.90;;;;;;4926824;29;20498;-69
2022/03/15 14:43:06;;;;;;;21.37;14.10;;;12.50;99.90;;;;;;4934517;29;20540;-71
2022/03/15 14:45:35;;;;;;;27.58;16.80;;;12.50;99.90;;;;;;4934347;29;20465;-70
2022/03/15 14:48:01;;;;;;;21.83;14.20;;;12.50;99.90;;;;;;4928623;29;20209;-71
2022/03/15 14:50:30;;;;;;;19.77;12.37;;;12.50;99.90;;;;;;4935795;29;20556;-70
2022/03/15 14:52:57;;;;;;;18.57;13.17;;;12.50;99.90;;;;;;4925632;29;20460;-69
2022/03/15 14:55:26;;;;;;;21.77;12.80;;;12.50;99.90;;;;;;4933124;29;20909;-65
2022/03/15 14:57:53;;;;;;;16.53;12.33;;;12.40;99.90;;;;;;4930267;29;20475;-66
2022/03/15 15:00:22;;;;;;;18.30;13.07;;;12.40;99.90;;;;;;4927749;29;20462;-65
2022/03/15 15:02:52;;;;;;;17.40;10.90;;;12.40;99.90;;;;;;4924526;29;21312;-66
2022/03/15 15:05:19;;;;;;;16.63;11.10;;;12.40;99.90;;;;;;4934372;29;20498;-65
2022/03/15 15:07:46;;;;;;;14.90;11.30;;;12.40;99.90;;;;;;4932643;29;20473;-66
2022/03/15 15:10:15;;;;;;;18.10;12.20;;;12.40;99.90;;;;;;4928735;29;21184;-67
2022/03/15 15:12:43;;;;;;;17.17;11.97;;;12.40;99.90;;;;;;4926334;29;20469;-66
2022/03/15 15:15:12;;;;;;;24.40;12.97;;;12.40;99.90;;;;;;4934993;29;21005;-67
2022/03/15 15:17:41;;;;;;;19.50;14.20;;;12.30;99.90;;;;;;4918789;29;20477;-69
2022/03/15 15:20:11;;;;;;;16.50;12.03;;;12.30;99.90;;;;;;4933658;29;20465;-67
2022/03/15 15:22:41;;;;;;;15.60;11.10;;;12.30;99.90;;;;;;4933917;29;20485;-65
2022/03/15 15:25:10;;;;;;;22.43;13.50;;;12.30;99.90;;;;;;4934452;29;20486;-66
2022/03/15 15:27:37;;;;;;;17.40;12.57;;;12.20;99.90;;;;;;4934516;29;20998;-67
2022/03/15 15:30:05;;;;;;;17.67;12.10;;;12.20;99.90;;;;;;4933696;29;20554;-67
2022/03/15 15:32:32;;;;;;;21.93;14.10;;;12.20;99.90;;;;;;4925989;29;20485;-66
2022/03/15 15:35:00;;;;;;;21.20;12.93;;;12.20;99.90;;;;;;4934597;29;20568;-67
2022/03/15 15:37:27;;;;;;;21.93;12.37;;;12.20;99.90;;;;;;4934186;29;20469;-68
2022/03/15 15:39:54;;;;;;;24.23;12.83;;;12.20;99.90;;;;;;4934244;29;20501;-67
2022/03/15 15:42:22;;;;;;;18.53;12.90;;;12.20;99.90;;;;;;4933100;29;20485;-66
2022/03/15 15:44:52;;;;;;;21.20;12.53;;;12.10;99.90;;;;;;4927569;29;20529;-66
2022/03/15 15:47:24;;;;;;;20.53;12.63;;;12.10;99.90;;;;;;4927563;29;20557;-67
2022/03/15 15:49:52;;;;;;;21.47;13.67;;;12.10;99.90;;;;;;4934790;29;20647;-67
2022/03/15 15:52:21;;;;;;;18.90;14.33;;;12.00;99.90;;;;;;4936191;29;20462;-69
2022/03/15 15:54:54;;;;;;;20.43;14.73;;;12.00;99.90;;;;;;4935959;29;20564;-70
2022/03/15 15:57:23;;;;;;;28.00;16.70;;;12.00;99.90;;;;;;4933880;29;20473;-70
2022/03/15 15:59:53;;;;;;;24.37;16.83;;;12.00;99.90;;;;;;4926767;29;20478;-70
2022/03/15 16:02:20;;;;;;;21.70;15.40;;;11.90;99.90;;;;;;4930634;29;20489;-69
2022/03/15 16:04:46;;;;;;;28.83;15.68;;;11.90;99.90;;;;;;4931107;29;20506;-69
2022/03/15 16:07:19;;;;;;;23.80;15.75;;;11.90;99.90;;;;;;4932687;29;20213;-70
2022/03/15 16:09:47;;;;;;;22.73;15.07;;;11.80;99.90;;;;;;4927251;29;20852;-69
2022/03/15 16:12:16;;;;;;;22.75;14.35;;;11.70;99.90;;;;;;4933386;29;20206;-69
2022/03/15 16:14:43;;;;;;;27.13;15.85;;;11.70;99.90;;;;;;4934339;29;20288;-69
2022/03/15 16:17:10;;;;;;;23.10;16.88;;;11.70;99.90;;;;;;4925851;29;20209;-70
2022/03/15 16:19:36;;;;;;;18.77;14.80;;;11.70;99.90;;;;;;4932680;29;20206;-70
2022/03/15 16:22:04;;;;;;;21.98;14.70;;;11.60;99.90;;;;;;4924483;29;20238;-69
2022/03/15 16:24:31;;;;;;;23.35;16.13;;;11.50;99.90;;;;;;4930759;29;20229;-69
2022/03/15 16:26:59;;;;;;;22.20;15.32;;;11.50;99.90;;;;;;4933085;29;20535;-69
2022/03/15 16:29:25;;;;;;;21.58;15.20;;;11.50;99.90;;;;;;4929105;29;20248;-70
2022/03/15 16:31:54;;;;;;;26.85;15.93;;;11.50;99.90;;;;;;4930952;29;20214;-70
2022/03/15 16:34:21;;;;;;;21.80;14.07;;;11.40;99.90;;;;;;4932964;29;20678;-69
2022/03/15 16:36:48;;;;;;;21.48;15.70;;;11.40;99.90;;;;;;4927369;29;20296;-70
2022/03/15 16:39:15;;;;;;;26.35;17.10;;;11.40;99.90;;;;;;4924235;29;20317;-68
2022/03/15 16:41:42;;;;;;;30.48;17.75;;;11.30;99.90;;;;;;4927797;29;20636;-70
2022/03/15 16:44:10;;;;;;;21.13;15.52;;;11.30;99.90;;;;;;4924960;29;20274;-70
2022/03/15 16:46:37;;;;;;;22.77;16.02;;;11.30;99.90;;;;;;4932524;29;20289;-69
2022/03/15 16:49:04;;;;;;;21.65;16.23;;;11.30;99.90;;;;;;4922552;29;20217;-70
2022/03/15 16:51:31;;;;;;;27.48;17.10;;;11.20;99.90;;;;;;4923944;29;20209;-69
2022/03/15 16:53:57;;;;;;;25.13;16.60;;;11.20;99.90;;;;;;4933395;29;20297;-68
2022/03/15 16:56:24;;;;;;;23.88;14.52;;;11.20;99.90;;;;;;4926233;29;20285;-69
2022/03/15 16:59:11;;;;;;;22.27;15.80;;;11.20;99.90;;;;;;4928578;29;20683;-69
2022/03/15 17:01:40;;;;;;;27.50;15.40;;;11.10;99.90;;;;;;4931164;29;20313;-69
2022/03/15 17:06:51;;;;;;;22.90;16.38;;;11.10;99.90;;;;;;4932575;29;20204;-69
2022/03/15 17:09:18;;;;;;;24.30;16.30;;;11.00;99.90;;;;;;4930202;29;20273;-71
2022/03/15 17:11:49;;;;;;;28.00;16.80;;;11.00;99.90;;;;;;4928578;29;20198;-69
2022/03/15 17:14:16;;;;;;;23.10;15.45;;;11.00;99.90;;;;;;4932018;29;20290;-69
2022/03/15 17:16:47;;;;;;;28.95;16.38;;;10.90;99.90;;;;;;4927611;29;20214;-70
2022/03/15 17:19:14;;;;;;;26.00;15.52;;;10.90;99.90;;;;;;4928299;29;20501;-69
2022/03/15 17:21:40;;;;;;;26.83;15.70;;;10.90;99.90;;;;;;4931456;29;20210;-69
2022/03/15 17:24:07;;;;;;;25.45;15.30;;;10.80;99.90;;;;;;4923235;29;20692;-70
2022/03/15 17:26:37;;;;;;;19.38;14.45;;;10.80;99.90;;;;;;4938473;29;20213;-69
2022/03/15 17:29:07;;;;;;;26.27;15.63;;;10.80;99.90;;;;;;4936477;29;20216;-69
2022/03/15 17:31:37;;;;;;;20.88;15.05;;;10.70;99.90;;;;;;4937451;29;20268;-68
2022/03/15 17:34:08;;;;;;;29.15;19.95;;;10.70;99.90;;;;;;4928993;29;20210;-69
2022/03/15 17:36:36;;;;;;;23.48;16.40;;;10.60;99.90;;;;;;4929834;29;20241;-70
2022/03/15 17:39:05;;;;;;;21.52;13.75;;;10.60;99.90;;;;;;4929702;29;20232;-70
2022/03/15 17:41:32;;;;;;;20.23;14.35;;;10.50;99.90;;;;;;4932955;29;20206;-69